createdAt,value
2019-03-28T00:02:16.747Z,21.10
2019-03-28T00:07:24.627Z,19.82
2019-03-28T00:17:39.055Z,21.37
2019-03-28T00:22:53.265Z,20.60
2019-03-28T00:28:01.280Z,26.70
2019-03-28T00:33:09.048Z,31.45
2019-03-28T00:38:17.054Z,23.38
2019-03-28T00:43:25.324Z,22.20
2019-03-28T00:48:33.416Z,28.67
2019-03-28T00:53:41.505Z,28.20
2019-03-28T00:58:50.586Z,31.70
2019-03-28T01:03:58.617Z,27.60
2019-03-28T01:09:09.581Z,26.90
2019-03-28T01:14:17.633Z,29.18
2019-03-28T01:19:25.587Z,29.23
2019-03-28T01:24:33.672Z,28.73
2019-03-28T01:29:41.626Z,31.65
2019-03-28T01:34:49.679Z,28.15
2019-03-28T01:39:57.866Z,32.30
2019-03-28T01:45:06.602Z,28.73
2019-03-28T01:50:15.429Z,29.05
2019-03-28T01:55:23.344Z,27.20
2019-03-28T02:00:31.330Z,26.93
2019-03-28T02:10:45.948Z,28.35
2019-03-28T02:21:01.271Z,36.63
2019-03-28T02:31:16.690Z,33.80
2019-03-28T02:36:25.266Z,29.67
2019-03-28T02:46:39.576Z,40.30
2019-03-28T02:56:54.246Z,40.67
2019-03-28T03:07:08.598Z,44.73
2019-03-28T03:17:23.351Z,50.80
2019-03-28T03:27:37.919Z,47.88
2019-03-28T03:32:45.756Z,64.45
2019-03-28T03:37:53.640Z,51.13
2019-03-28T03:43:01.742Z,38.15
2019-03-28T03:48:09.642Z,43.57
2019-03-28T03:53:17.642Z,40.48
2019-03-28T03:58:25.633Z,39.35
2019-03-28T04:03:33.749Z,42.33
2019-03-28T04:08:41.714Z,40.95
2019-03-28T04:13:49.638Z,38.92
2019-03-28T04:18:57.645Z,41.73
2019-03-28T04:24:06.239Z,44.55
2019-03-28T04:29:14.067Z,47.60
2019-03-28T04:34:22.241Z,44.58
2019-03-28T04:39:30.219Z,50.98
2019-03-28T04:44:38.249Z,40.92
2019-03-28T04:54:52.565Z,35.88
2019-03-28T05:00:00.807Z,30.25
2019-03-28T05:10:15.768Z,31.48
2019-03-28T05:20:30.067Z,35.75
2019-03-28T05:30:44.930Z,33.95
2019-03-28T05:41:00.039Z,35.75
2019-03-28T05:46:08.259Z,36.55
2019-03-28T05:56:23.416Z,39.60
2019-03-28T06:06:37.957Z,40.43
2019-03-28T06:11:47.058Z,46.23
2019-03-28T06:22:01.586Z,47.93
2019-03-28T06:27:09.579Z,49.25
2019-03-28T06:32:17.424Z,49.20
2019-03-28T06:37:25.262Z,50.20
2019-03-28T06:42:33.265Z,50.48
2019-03-28T06:47:41.072Z,44.58
2019-03-28T06:52:49.052Z,51.65
2019-03-28T06:57:58.602Z,49.60
2019-03-28T07:03:06.607Z,46.40
2019-03-28T07:08:14.678Z,47.97
2019-03-28T07:18:29.422Z,43.40
2019-03-28T07:28:43.766Z,41.05
2019-03-28T07:38:58.258Z,39.08
2019-03-28T07:44:06.264Z,48.30
2019-03-28T07:49:14.250Z,41.37
2019-03-28T07:54:22.245Z,40.43
2019-03-28T07:59:30.418Z,34.90
2019-03-28T08:04:38.423Z,28.87
2019-03-28T08:14:52.756Z,24.82
2019-03-28T08:25:11.372Z,28.50
2019-03-28T08:30:22.577Z,31.70
2019-03-28T08:40:43.873Z,24.35
2019-03-28T08:50:58.426Z,24.23
2019-03-28T08:56:06.571Z,24.47
2019-03-28T09:01:14.474Z,26.20
2019-03-28T09:16:35.473Z,21.75
2019-03-28T09:21:43.571Z,16.60
2019-03-28T09:26:51.539Z,16.12
2019-03-28T09:31:59.565Z,13.58
2019-03-28T09:37:07.589Z,14.25
2019-03-28T09:42:15.580Z,14.33
2019-03-28T09:47:23.413Z,17.57
2019-03-28T09:52:31.236Z,12.93
2019-03-28T09:57:39.071Z,11.25
2019-03-28T10:02:47.065Z,12.80
2019-03-28T10:07:54.867Z,12.98
2019-03-28T10:13:02.645Z,11.88
2019-03-28T10:18:10.629Z,10.63
2019-03-28T10:23:18.770Z,12.60
2019-03-28T10:28:27.569Z,10.55
2019-03-28T10:38:50.577Z,15.90
2019-03-28T10:43:58.625Z,15.78
2019-03-28T10:54:19.805Z,13.40
2019-03-28T10:59:24.001Z,11.60
2019-03-28T11:09:39.283Z,17.05
2019-03-28T11:19:55.994Z,12.70
2019-03-28T11:30:11.459Z,14.80
2019-03-28T11:35:19.427Z,16.77
2019-03-28T11:45:33.778Z,24.87
2019-03-28T11:50:42.068Z,18.98
2019-03-28T11:55:50.106Z,17.80
2019-03-28T12:00:58.092Z,15.93
2019-03-28T12:06:06.319Z,23.80
2019-03-28T12:11:14.243Z,15.93
2019-03-28T12:16:22.235Z,15.20
2019-03-28T12:21:30.645Z,10.30
2019-03-28T12:26:38.576Z,10.72
2019-03-28T12:31:46.594Z,12.28
2019-03-28T12:36:54.464Z,10.80
2019-03-28T12:42:02.505Z,10.43
2019-03-28T12:47:10.388Z,8.20
2019-03-28T12:52:18.578Z,10.58
2019-03-28T12:57:26.910Z,10.18
2019-03-28T13:02:36.264Z,9.90
2019-03-28T13:07:44.076Z,11.95
2019-03-28T13:12:52.257Z,11.68
2019-03-28T13:18:00.027Z,10.00
2019-03-28T13:23:08.067Z,10.97
2019-03-28T13:28:15.939Z,8.97
2019-03-28T13:33:24.084Z,11.65
2019-03-28T13:38:32.335Z,9.75
2019-03-28T13:43:40.253Z,6.37
2019-03-28T13:48:48.378Z,8.78
2019-03-28T13:53:56.272Z,17.12
2019-03-28T13:59:04.075Z,14.43
2019-03-28T14:04:12.071Z,18.57
2019-03-28T14:15:18.432Z,15.03
2019-03-28T14:20:26.269Z,11.55
2019-03-28T14:25:34.092Z,9.18
2019-03-28T14:30:42.071Z,12.07
2019-03-28T14:35:50.242Z,14.05
2019-03-28T14:40:58.472Z,16.97
2019-03-28T14:46:06.762Z,13.00
2019-03-28T14:54:44.673Z,11.33
2019-03-28T14:59:53.587Z,15.35
2019-03-28T15:05:01.597Z,14.80
2019-03-28T15:10:10.399Z,12.20
2019-03-28T15:15:18.268Z,11.68
2019-03-28T15:20:27.587Z,9.83
2019-03-28T15:25:35.573Z,9.93
2019-03-28T15:30:43.479Z,13.65
2019-03-28T15:35:51.405Z,23.18
2019-03-28T15:40:59.264Z,21.02
2019-03-28T15:46:07.255Z,18.90
2019-03-28T15:51:15.227Z,15.45
2019-03-28T15:56:23.234Z,15.15
2019-03-28T16:01:31.028Z,17.30
2019-03-28T16:06:39.053Z,10.98
2019-03-28T16:11:47.056Z,12.73
2019-03-28T16:16:55.407Z,11.48
2019-03-28T16:22:04.339Z,15.50
2019-03-28T16:27:12.453Z,14.68
2019-03-28T16:32:20.259Z,17.05
2019-03-28T16:37:28.111Z,18.92
2019-03-28T16:46:34.716Z,9.95
2019-03-28T16:51:43.548Z,13.30
2019-03-28T16:56:54.767Z,10.35
2019-03-28T17:02:02.691Z,12.82
2019-03-28T17:07:11.055Z,18.45
2019-03-28T17:12:19.080Z,22.35
2019-03-28T17:17:27.257Z,18.15
2019-03-28T17:22:35.828Z,20.12
2019-03-28T17:27:46.527Z,23.92
2019-03-28T17:32:55.555Z,22.35
2019-03-28T17:38:03.574Z,23.74
2019-03-28T17:43:11.536Z,25.77
2019-03-28T17:48:19.572Z,20.35
2019-03-28T17:53:27.565Z,20.65
2019-03-28T17:58:35.570Z,21.52
2019-03-28T18:03:43.595Z,15.58
2019-03-28T18:08:51.586Z,19.73
2019-03-28T18:13:59.555Z,18.62
2019-03-28T18:19:07.593Z,15.83
2019-03-28T18:24:15.809Z,17.35
2019-03-28T18:29:23.700Z,15.30
2019-03-28T18:34:31.588Z,18.05
2019-03-28T18:39:39.567Z,14.70
2019-03-28T18:44:47.570Z,18.80
2019-03-28T18:49:55.446Z,14.53
2019-03-28T18:55:03.703Z,14.70
2019-03-28T19:00:13.047Z,15.67
2019-03-28T19:05:21.261Z,14.75
2019-03-28T19:10:29.265Z,16.00
2019-03-28T19:15:37.179Z,14.83
2019-03-28T19:20:45.260Z,15.70
2019-03-28T19:25:53.526Z,20.00
2019-03-28T19:31:01.458Z,17.20
2019-03-28T19:36:09.574Z,23.07
2019-03-28T19:41:17.586Z,23.60
2019-03-28T19:46:25.601Z,21.37
2019-03-28T19:51:34.049Z,19.20
2019-03-28T19:56:42.260Z,21.02
2019-03-28T20:01:50.069Z,21.90
2019-03-28T20:06:58.082Z,19.07
2019-03-28T20:12:06.059Z,24.60
2019-03-28T20:17:14.265Z,21.60
2019-03-28T20:22:23.559Z,18.30
2019-03-28T20:27:31.441Z,21.45
2019-03-28T20:32:39.552Z,18.40
2019-03-28T20:37:47.586Z,18.50
2019-03-28T20:42:55.595Z,17.35
2019-03-28T20:48:03.600Z,16.84
2019-03-28T20:53:12.015Z,19.92
2019-03-28T20:58:20.138Z,18.23
2019-03-28T21:03:28.086Z,18.25
2019-03-28T21:08:36.259Z,19.82
2019-03-28T21:13:44.084Z,17.55
2019-03-28T21:18:52.868Z,18.35
2019-03-28T21:24:01.381Z,16.12
2019-03-28T21:29:10.256Z,16.07
2019-03-28T21:34:18.275Z,14.75
2019-03-28T21:39:26.406Z,22.17
2019-03-28T21:44:34.328Z,20.37
2019-03-28T21:49:42.095Z,19.95
2019-03-28T21:54:50.718Z,27.22
2019-03-28T21:59:58.647Z,20.92
2019-03-28T22:05:07.072Z,20.45
2019-03-28T22:10:17.044Z,26.35
2019-03-28T22:15:25.264Z,27.07
2019-03-28T22:20:33.135Z,30.30
2019-03-28T22:25:40.945Z,28.80
2019-03-28T22:30:48.931Z,26.25
2019-03-28T22:35:56.754Z,34.13
2019-03-28T22:41:05.275Z,30.57
2019-03-28T22:46:13.075Z,33.78
2019-03-28T22:51:21.010Z,35.75
2019-03-28T22:56:28.942Z,40.25
2019-03-28T23:01:37.402Z,42.17
2019-03-28T23:06:45.465Z,38.92
2019-03-28T23:11:53.375Z,37.63
2019-03-28T23:17:01.268Z,39.27
2019-03-28T23:22:09.277Z,47.50
2019-03-28T23:27:17.270Z,47.55
2019-03-28T23:32:25.251Z,42.65
2019-03-28T23:37:33.179Z,46.18
2019-03-28T23:42:41.396Z,45.83
2019-03-28T23:47:50.325Z,50.30
2019-03-28T23:52:58.934Z,55.10
2019-03-28T23:58:07.074Z,51.07
